Time;durP1;ratioP1;P1;durP2;ratioP2;P2;SDS_P1;SDS_P2;PMS_P1;PMS_P2;Temp;Humidity;BMP_temperature;BMP_pressure;BME280_temperature;BME280_humidity;BME280_pressure;Samples;Min_cycle;Max_cycle;Signal;HPM_P1;HPM_P2
2022/06/09 00:00:13;;;;;;;8.60;2.93;;;;;;;19.85;nan;101740.75;4879280;29;20993;-89
2022/06/09 00:02:45;;;;;;;9.60;3.13;;;;;;;19.84;nan;101733.50;4895341;29;20518;-89
2022/06/09 00:05:13;;;;;;;8.60;2.97;;;;;;;19.86;nan;101731.34;4895653;29;20457;-87
2022/06/09 00:07:41;;;;;;;8.67;2.73;;;;;;;19.89;nan;101725.34;4864240;29;20518;-90
2022/06/09 00:10:30;;;;;;;7.23;3.00;;;;;;;19.92;nan;101724.03;4879705;29;20451;-88
2022/06/09 00:12:58;;;;;;;7.00;2.67;;;;;;;19.89;nan;101713.38;4894807;29;20538;-90
2022/06/09 00:15:26;;;;;;;6.70;2.70;;;;;;;19.81;nan;101699.84;4865122;29;20466;-90
2022/06/09 00:17:54;;;;;;;6.50;2.90;;;;;;;19.83;nan;101700.44;4860983;29;20467;-88
2022/06/09 00:20:22;;;;;;;5.70;2.47;;;;;;;19.71;nan;101672.63;4891907;29;20470;-90
2022/06/09 00:22:50;;;;;;;14.57;3.43;;;;;;;19.83;nan;101681.84;4876518;29;20447;-88
2022/06/09 00:25:20;;;;;;;8.60;2.93;;;;;;;19.86;nan;101684.19;4879393;29;20470;-88
2022/06/09 00:27:47;;;;;;;14.23;3.13;;;;;;;19.83;nan;101679.09;4864235;29;20856;-89
2022/06/09 00:30:16;;;;;;;6.93;2.63;;;;;;;19.83;nan;101664.38;4864265;29;20507;-90
2022/06/09 00:32:44;;;;;;;7.10;3.30;;;;;;;19.88;nan;101673.69;4879332;29;20475;-88
2022/06/09 00:35:13;;;;;;;11.70;3.07;;;;;;;19.78;nan;101662.31;4879521;29;20988;-87
2022/06/09 00:37:41;;;;;;;6.07;2.70;;;;;;;19.81;nan;101661.00;4879509;29;20833;-88
2022/06/09 00:40:11;;;;;;;9.97;2.93;;;;;;;19.85;nan;101651.09;4864345;29;20454;-90
2022/06/09 00:42:38;;;;;;;8.03;3.00;;;;;;;19.83;nan;101681.00;4864735;29;20458;-90
2022/06/09 00:45:24;;;;;;;13.13;3.20;;;;;;;19.85;nan;101663.06;4878623;29;20454;-88
2022/06/09 00:47:56;;;;;;;9.70;3.00;;;;;;;19.81;nan;101667.41;4876255;29;20464;-88
2022/06/09 00:50:32;;;;;;;11.17;2.60;;;;;;;19.78;nan;101665.09;4864694;29;20458;-88
2022/06/09 00:53:02;;;;;;;8.77;2.87;;;;;;;19.75;nan;101660.00;4864125;29;20486;-88
2022/06/09 00:55:31;;;;;;;11.77;3.00;;;;;;;19.87;nan;101669.22;4876255;29;20470;-88
2022/06/09 00:58:07;;;;;;;9.10;3.27;;;;;;;19.83;nan;101654.13;4845066;29;20471;-88
2022/06/09 01:00:46;;;;;;;6.63;2.97;;;;;;;19.80;nan;101637.97;4866547;29;20462;-88
2022/06/09 01:03:18;;;;;;;9.10;3.40;;;;;;;19.77;nan;101629.25;4863681;29;20832;-89
2022/06/09 01:05:46;;;;;;;11.50;3.70;;;;;;;19.83;nan;101626.38;4879401;29;20455;-89
2022/06/09 01:08:15;;;;;;;12.27;3.43;;;;;;;19.85;nan;101627.00;4863926;29;20960;-87
2022/06/09 01:10:43;;;;;;;5.90;3.07;;;;;;;19.86;nan;101625.91;4863941;29;20969;-90
2022/06/09 01:13:16;;;;;;;8.27;3.93;;;;;;;19.76;nan;101608.97;4864112;29;21000;-90
2022/06/09 01:15:51;;;;;;;9.80;3.40;;;;;;;19.84;nan;101611.41;4879281;29;20961;-88
2022/06/09 01:18:37;;;;;;;8.73;4.27;;;;;;;19.87;nan;101615.66;4879411;29;20808;-88
2022/06/09 01:21:43;;;;;;;9.70;3.73;;;;;;;19.83;nan;101617.19;4879071;29;20510;-90
2022/06/09 01:24:16;;;;;;;9.90;3.67;;;;;;;19.91;nan;101606.63;4891282;29;20465;-88
2022/06/09 01:27:03;;;;;;;20.43;4.30;;;;;;;19.88;nan;101596.00;4863284;29;20603;-89
2022/06/09 01:29:32;;;;;;;10.77;4.90;;;;;;;19.90;nan;101604.94;4894158;29;20533;-90
2022/06/09 01:32:18;;;;;;;15.80;4.73;;;;;;;19.99;nan;101603.56;4866166;29;20451;-90
2022/06/09 01:35:05;;;;;;;8.17;4.60;;;;;;;19.91;nan;101587.22;4863634;29;20466;-90
2022/06/09 01:38:02;;;;;;;9.00;4.63;;;;;;;19.83;nan;101572.81;4849617;29;20458;-88
2022/06/09 01:40:32;;;;;;;9.43;5.10;;;;;;;19.81;nan;101581.41;4896998;29;20470;-88
2022/06/09 01:43:04;;;;;;;18.13;5.90;;;;;;;19.84;nan;101577.28;4897315;29;21004;-90
2022/06/09 01:45:47;;;;;;;9.13;5.53;;;;;;;19.80;nan;101573.31;4851951;29;20454;-90
2022/06/09 01:48:21;;;;;;;11.20;6.13;;;;;;;19.79;nan;101569.69;4897282;29;20457;-88
2022/06/09 01:50:54;;;;;;;10.00;5.43;;;;;;;19.83;nan;101570.88;4879180;29;20453;-89
2022/06/09 01:53:55;;;;;;;16.73;6.63;;;;;;;19.80;nan;101570.53;4881713;29;20493;-88
2022/06/09 01:56:34;;;;;;;11.07;6.20;;;;;;;19.77;nan;101576.53;4881795;29;20457;-88
2022/06/09 01:59:26;;;;;;;10.53;6.13;;;;;;;19.78;nan;101573.53;4881974;29;20454;-88
2022/06/09 02:02:16;;;;;;;11.50;6.70;;;;;;;19.73;nan;101573.38;4883535;29;20462;-90
2022/06/09 02:04:54;;;;;;;13.10;7.00;;;;;;;19.72;nan;101577.25;4849224;29;21013;-90
2022/06/09 02:07:22;;;;;;;17.20;7.70;;;;;;;19.70;nan;101567.44;4880391;29;20467;-90
2022/06/09 02:09:49;;;;;;;17.50;7.03;;;;;;;19.72;nan;101568.91;4882150;29;20450;-90
2022/06/09 02:12:25;;;;;;;16.00;8.20;;;;;;;19.62;nan;101557.53;4881205;29;20462;-89
2022/06/09 02:14:54;;;;;;;17.80;8.83;;;;;;;19.76;nan;101564.59;4896677;29;20820;-88
2022/06/09 02:17:23;;;;;;;16.10;7.70;;;;;;;19.74;nan;101572.31;4881557;29;20796;-90
2022/06/09 02:19:55;;;;;;;15.57;8.20;;;;;;;19.70;nan;101565.53;4879148;29;20813;-90
2022/06/09 02:22:22;;;;;;;16.63;8.43;;;;;;;19.61;nan;101551.16;4881406;29;20461;-90
2022/06/09 02:24:50;;;;;;;10.20;7.27;;;;;;;19.62;nan;101555.63;4862947;29;20458;-88
2022/06/09 02:27:17;;;;;;;16.20;7.37;;;;;;;19.62;nan;101557.53;4847862;29;20894;-88
2022/06/09 02:29:46;;;;;;;10.27;6.50;;;;;;;19.52;nan;101546.16;4847966;29;20953;-88
2022/06/09 02:32:15;;;;;;;9.17;5.77;;;;;;;19.59;nan;101541.38;4866059;29;20454;-90
2022/06/09 02:34:44;;;;;;;15.87;6.87;;;;;;;19.53;nan;101536.75;4869445;29;21026;-90
2022/06/09 02:37:13;;;;;;;14.80;5.77;;;;;;;19.57;nan;101554.63;4878258;29;20469;-88
2022/06/09 02:40:06;;;;;;;9.40;5.30;;;;;;;19.62;nan;101555.63;4883715;29;20851;-88
2022/06/09 02:42:34;;;;;;;6.90;3.97;;;;;;;19.59;nan;101552.47;4884761;29;20531;-88
2022/06/09 02:45:07;;;;;;;17.10;5.17;;;;;;;19.65;nan;101552.34;4885518;29;20996;-90
2022/06/09 02:47:35;;;;;;;13.20;3.90;;;;;;;19.59;nan;101530.28;4890774;29;20455;-90
2022/06/09 02:50:03;;;;;;;10.63;4.27;;;;;;;19.61;nan;101540.06;4862982;29;20465;-87
2022/06/09 02:52:31;;;;;;;8.73;3.80;;;;;;;19.59;nan;101541.38;4893875;29;20536;-88
2022/06/09 02:54:58;;;;;;;9.90;3.53;;;;;;;19.53;nan;101548.69;4889524;29;20553;-88
2022/06/09 02:57:29;;;;;;;9.90;3.30;;;;;;;19.59;nan;101538.59;4870898;29;20438;-88
2022/06/09 02:59:57;;;;;;;10.73;3.70;;;;;;;19.53;nan;101532.06;4885447;29;20801;-91
2022/06/09 03:02:24;;;;;;;5.97;3.23;;;;;;;19.48;nan;101539.34;4854422;29;20461;-87
2022/06/09 03:04:52;;;;;;;7.57;3.10;;;;;;;19.48;nan;101534.63;4854630;29;20449;-88
2022/06/09 03:07:20;;;;;;;8.50;3.70;;;;;;;19.56;nan;101544.59;4885192;29;20480;-88
2022/06/09 03:09:50;;;;;;;10.53;4.00;;;;;;;19.44;nan;101538.09;4869141;29;20457;-89
2022/06/09 03:12:20;;;;;;;6.03;2.93;;;;;;;19.43;nan;101526.19;4869360;29;20453;-89
2022/06/09 03:14:50;;;;;;;5.47;3.00;;;;;;;19.43;nan;101533.66;4885032;29;20497;-90
2022/06/09 03:17:18;;;;;;;15.03;3.63;;;;;;;19.46;nan;101535.94;4884944;29;20462;-88
2022/06/09 03:19:47;;;;;;;9.83;3.20;;;;;;;19.43;nan;101525.34;4884683;29;20446;-90
2022/06/09 03:22:15;;;;;;;9.27;3.07;;;;;;;19.46;nan;101524.84;4868986;29;20892;-88
2022/06/09 03:24:44;;;;;;;9.87;2.77;;;;;;;19.48;nan;101536.56;4853177;29;20524;-88
2022/06/09 03:27:12;;;;;;;6.80;3.10;;;;;;;19.49;nan;101541.03;4880540;29;20482;-88
2022/06/09 03:29:39;;;;;;;11.40;3.30;;;;;;;19.44;nan;101527.00;4866148;29;20783;-87
2022/06/09 03:32:07;;;;;;;9.60;3.33;;;;;;;19.48;nan;101531.00;4865655;29;20490;-89
2022/06/09 03:34:35;;;;;;;16.90;3.10;;;;;;;19.46;nan;101533.16;4864924;29;20530;-88
2022/06/09 03:37:03;;;;;;;5.10;3.07;;;;;;;19.40;nan;101529.44;4880726;29;20467;-90
2022/06/09 03:39:31;;;;;;;9.70;3.43;;;;;;;19.39;nan;101524.13;4880678;29;20506;-88
2022/06/09 03:41:58;;;;;;;8.20;2.80;;;;;;;19.43;nan;101517.03;4880644;29;20461;-88
2022/06/09 03:44:26;;;;;;;7.90;2.70;;;;;;;19.36;nan;101514.34;4881228;29;20827;-89
2022/06/09 03:46:54;;;;;;;10.43;2.80;;;;;;;19.44;nan;101527.00;4880390;29;20957;-88
2022/06/09 03:49:23;;;;;;;9.67;3.30;;;;;;;19.42;nan;101518.09;4865300;29;20458;-88
2022/06/09 03:51:50;;;;;;;7.93;3.13;;;;;;;19.42;nan;101523.66;4864974;29;20457;-88
2022/06/09 03:54:19;;;;;;;6.53;2.70;;;;;;;19.42;nan;101521.72;4880613;29;20538;-88
2022/06/09 03:56:48;;;;;;;6.27;3.10;;;;;;;19.38;nan;101517.72;4865239;29;20949;-88
2022/06/09 03:59:16;;;;;;;9.00;2.97;;;;;;;19.42;nan;101535.59;4876781;29;20814;-88
2022/06/09 04:01:45;;;;;;;10.93;2.70;;;;;;;19.39;nan;101519.41;4875126;29;20453;-89
2022/06/09 04:04:13;;;;;;;7.77;2.73;;;;;;;19.41;nan;101525.56;4864703;29;20462;-89
2022/06/09 04:06:41;;;;;;;2.83;1.90;;;;;;;19.36;nan;101516.25;4864597;29;20522;-89
2022/06/09 04:09:08;;;;;;;4.77;2.37;;;;;;;19.38;nan;101522.41;4880102;29;20988;-88
2022/06/09 04:11:37;;;;;;;8.03;2.53;;;;;;;19.21;nan;101495.34;4864620;29;20450;-89
2022/06/09 04:14:05;;;;;;;6.20;2.60;;;;;;;19.31;nan;101519.72;4895473;29;20893;-88
2022/06/09 04:16:41;;;;;;;5.57;2.30;;;;;;;19.28;nan;101500.78;4876163;29;20459;-88
2022/06/09 04:19:10;;;;;;;8.60;2.57;;;;;;;19.27;nan;101507.41;4861712;29;20443;-88
2022/06/09 04:21:38;;;;;;;6.13;2.60;;;;;;;19.32;nan;101510.31;4871889;29;20460;-88
2022/06/09 04:24:07;;;;;;;4.13;2.57;;;;;;;19.27;nan;101505.47;4876267;29;20470;-88
2022/06/09 04:26:35;;;;;;;5.53;2.77;;;;;;;19.14;nan;101502.88;4885726;29;20458;-90
2022/06/09 04:29:05;;;;;;;9.17;2.90;;;;;;;19.20;nan;101498.34;4873298;29;20487;-88
2022/06/09 04:31:33;;;;;;;5.57;2.40;;;;;;;19.33;nan;101509.25;4857580;29;20489;-90
2022/06/09 04:34:01;;;;;;;4.83;2.10;;;;;;;19.25;nan;101506.78;4860904;29;20495;-90
2022/06/09 04:36:30;;;;;;;6.90;2.37;;;;;;;19.22;nan;101504.50;4873257;29;20484;-90
2022/06/09 04:39:00;;;;;;;4.27;2.00;;;;;;;19.12;nan;101496.72;4871377;29;20451;-90
2022/06/09 04:41:28;;;;;;;5.57;2.37;;;;;;;19.12;nan;101496.72;4845504;29;20472;-90
2022/06/09 04:43:57;;;;;;;5.40;2.83;;;;;;;19.21;nan;101495.34;4845878;29;20531;-89
2022/06/09 04:46:25;;;;;;;5.07;2.10;;;;;;;19.24;nan;101505.94;4845957;29;20487;-88
2022/06/09 04:48:53;;;;;;;5.57;2.27;;;;;;;19.18;nan;101495.81;4861218;29;20966;-90
2022/06/09 04:51:21;;;;;;;5.10;2.50;;;;;;;19.16;nan;101509.03;4860017;29;20451;-88
2022/06/09 04:53:49;;;;;;;4.13;2.47;;;;;;;19.20;nan;101510.28;4860920;29;20483;-88
2022/06/09 04:56:18;;;;;;;6.63;2.00;;;;;;;19.17;nan;101494.09;4857879;29;20789;-88
2022/06/09 04:58:48;;;;;;;3.17;2.20;;;;;;;19.10;nan;101489.72;4845895;29;20518;-88
2022/06/09 05:01:27;;;;;;;5.90;2.53;;;;;;;19.16;nan;101497.94;4842998;29;20509;-90
2022/06/09 05:03:56;;;;;;;6.30;2.43;;;;;;;19.03;nan;101481.50;4857068;29;20461;-88
2022/06/09 05:06:24;;;;;;;3.13;2.07;;;;;;;19.01;nan;101486.44;4856960;29;20474;-88
2022/06/09 05:08:53;;;;;;;3.83;2.20;;;;;;;19.15;nan;101512.03;4870706;29;20967;-88
2022/06/09 05:11:23;;;;;;;4.50;2.30;;;;;;;19.02;nan;101488.13;4837148;29;20457;-88
2022/06/09 05:13:51;;;;;;;3.50;2.20;;;;;;;19.18;nan;101509.66;4856920;29;20514;-88
2022/06/09 05:16:19;;;;;;;4.47;2.30;;;;;;;19.09;nan;101497.19;4804518;29;20827;-88
2022/06/09 05:18:47;;;;;;;4.17;2.23;;;;;;;19.12;nan;101499.50;4818809;29;20466;-88
2022/06/09 05:21:15;;;;;;;3.50;2.43;;;;;;;19.08;nan;101481.63;4819507;29;20792;-88
2022/06/09 05:23:43;;;;;;;4.23;2.23;;;;;;;19.19;nan;101491.94;4790210;29;20595;-88
2022/06/09 05:26:11;;;;;;;4.00;2.37;;;;;;;19.18;nan;101494.94;4823166;29;20460;-88
2022/06/09 05:28:39;;;;;;;4.37;2.40;;;;;;;19.20;nan;101496.41;4822597;29;21131;-88
2022/06/09 05:31:07;;;;;;;6.07;2.27;;;;;;;19.21;nan;101492.56;4817100;29;20508;-89
2022/06/09 05:33:35;;;;;;;2.73;1.97;;;;;;;19.29;nan;101502.47;4825819;29;20469;-88
2022/06/09 05:36:03;;;;;;;7.03;2.23;;;;;;;19.20;nan;101490.88;4825680;29;20456;-88
2022/06/09 05:46:53;;;;;;;4.83;2.17;;;;;;;19.24;nan;101500.38;4891879;29;20518;-88
2022/06/09 05:49:23;;;;;;;4.40;2.10;;;;;;;19.24;nan;101505.94;4878156;29;20578;-90
2022/06/09 05:51:52;;;;;;;2.40;1.43;;;;;;;19.37;nan;101504.09;4878729;29;20960;-89
2022/06/09 06:02:43;;;;;;;3.50;1.57;;;;;;;19.44;nan;101504.81;4862135;29;20533;-91
2022/06/09 06:56:21;;;;;;;2.17;1.40;;;;;;;20.18;nan;101489.69;4905600;28;20562;-93
2022/06/09 06:58:57;;;;;;;2.80;1.10;;;;;;;20.23;nan;101509.22;4837538;29;20911;-92
2022/06/09 07:51:20;;;;;;;3.53;1.37;;;;;;;21.16;nan;101531.47;4882830;29;20452;-95
2022/06/09 07:53:54;;;;;;;2.00;1.50;;;;;;;21.19;nan;101519.84;4852985;29;20467;-96
2022/06/09 08:00:15;;;;;;;1.80;1.20;;;;;;;21.33;nan;101526.88;4886722;29;20898;-95
2022/06/09 08:53:04;;;;;;;3.60;1.60;;;;;;;22.90;nan;101509.34;4911884;29;20430;-96
2022/06/09 08:56:19;;;;;;;2.40;1.30;;;;;;;23.06;nan;101507.66;4901993;29;20477;-96
2022/06/09 08:59:38;;;;;;;4.53;1.53;;;;;;;23.03;nan;101477.50;4883855;29;20489;-96
2022/06/09 09:03:06;;;;;;;4.17;1.60;;;;;;;23.30;nan;101492.31;4839369;29;20459;-96
2022/06/09 09:09:37;;;;;;;7.20;1.63;;;;;;;23.54;nan;101497.66;4867331;29;20452;-96
2022/06/09 09:12:53;;;;;;;5.27;1.70;;;;;;;23.60;nan;101494.69;4845896;29;20451;-95
2022/06/09 09:15:40;;;;;;;5.23;1.60;;;;;;;23.66;nan;101478.84;4846340;29;20499;-96
2022/06/09 09:30:04;;;;;;;4.00;2.13;;;;;;;24.40;nan;101467.81;4862071;29;20404;-96
2022/06/09 09:37:14;;;;;;;5.70;2.27;;;;;;;24.66;nan;101472.44;4866921;29;20434;-96
2022/06/09 09:40:48;;;;;;;7.27;2.27;;;;;;;24.81;nan;101479.25;4891230;29;20456;-96
2022/06/09 09:44:30;;;;;;;5.33;2.03;;;;;;;24.90;nan;101477.63;4914570;23;20487;-96
2022/06/09 09:47:54;;;;;;;3.87;2.40;;;;;;;24.98;nan;101479.94;4935745;29;20463;-95
2022/06/09 09:51:14;;;;;;;4.73;2.43;;;;;;;25.12;nan;101481.97;4923820;29;20826;-95
2022/06/09 09:53:47;;;;;;;6.93;2.40;;;;;;;25.26;nan;101482.28;4926466;29;20468;-96
2022/06/09 09:56:46;;;;;;;6.23;2.53;;;;;;;25.39;nan;101481.81;4924895;29;20487;-96
2022/06/09 13:04:22;;;;;;;5.60;1.33;;;;;;;28.59;nan;101376.81;4956532;28;21392;-95
2022/06/09 13:49:20;;;;;;;7.97;1.97;;;;;;;29.01;nan;101352.66;4940541;29;20476;-94
2022/06/09 13:52:03;;;;;;;14.60;1.50;;;;;;;29.13;nan;101347.41;4891233;29;20471;-95
2022/06/09 14:18:30;;;;;;;9.07;2.03;;;;;;;29.03;nan;101291.28;4944330;28;20462;-95
2022/06/09 14:20:59;;;;;;;5.23;1.70;;;;;;;29.10;nan;101302.97;4906947;29;20493;-92
2022/06/09 17:57:45;;;;;;;12.07;2.97;;;;;;;27.60;nan;101156.38;5149166;24;20585;-94
2022/06/09 18:03:55;;;;;;;14.07;2.83;;;;;;;27.26;nan;101136.78;4773000;30;20433;-94
2022/06/09 18:11:40;;;;;;;12.17;2.93;;;;;;;26.95;nan;101155.84;5360833;24;20536;-95
2022/06/09 18:22:03;;;;;;;12.77;2.70;;;;;;;26.82;nan;101163.78;4772703;30;20534;-95
2022/06/09 18:24:35;;;;;;;17.47;3.53;;;;;;;26.89;nan;101169.06;4759963;30;21097;-95
2022/06/09 18:31:03;;;;;;;12.90;3.30;;;;;;;26.83;nan;101170.22;4778356;30;20438;-96
2022/06/09 18:37:12;;;;;;;15.10;3.67;;;;;;;26.45;nan;101141.03;4777077;30;20479;-95
2022/06/09 22:03:55;;;;;;;14.60;3.20;;;;;;;22.31;nan;101288.13;5550114;24;20561;-96
2022/06/09 22:22:21;;;;;;;14.97;3.20;;;;;;;22.13;nan;101269.75;4681220;30;20939;-96
2022/06/09 23:13:13;;;;;;;;;;;;;;;;;;;;;
2022/06/09 23:24:45;;;;;;;29.53;4.97;;;;;;;22.19;nan;101265.09;4763760;30;20464;-96
2022/06/09 23:27:53;;;;;;;15.93;4.37;;;;;;;22.25;nan;101287.19;4734022;30;20517;-96
2022/06/09 23:31:34;;;;;;;31.00;6.03;;;;;;;22.16;nan;101285.94;4655059;30;20467;-96
2022/06/09 23:34:53;;;;;;;27.53;5.43;;;;;;;22.01;nan;101283.78;4614162;31;20480;-96
2022/06/09 23:42:27;;;;;;;31.57;5.27;;;;;;;21.93;nan;101278.66;4614247;31;20468;-96
2022/06/09 23:46:12;;;;;;;26.13;4.43;;;;;;;22.01;nan;101277.38;4604146;31;20459;-96
2022/06/09 23:49:50;;;;;;;24.67;5.27;;;;;;;21.90;nan;101265.25;4598458;31;20465;-96
2022/06/09 23:53:28;;;;;;;32.83;5.13;;;;;;;21.69;nan;101243.78;4612736;31;20521;-96
